Time;durP1;ratioP1;P1;durP2;ratioP2;P2;SDS_P1;SDS_P2;PMS_P1;PMS_P2;Temp;Humidity;BMP_temperature;BMP_pressure;BME280_temperature;BME280_humidity;BME280_pressure;Samples;Min_cycle;Max_cycle;Signal;HPM_P1;HPM_P2
2022/01/17 00:00:48;;;;;;;;;;;5.90;99.90;;;;;;5071266;28;19932;-76
2022/01/17 00:03:13;;;;;;;;;;;5.90;99.90;;;;;;5054183;28;19966;-76
2022/01/17 00:05:39;;;;;;;;;;;6.00;99.90;;;;;;5071150;28;19924;-76
2022/01/17 00:08:04;;;;;;;;;;;6.00;99.90;;;;;;5070528;28;19928;-76
2022/01/17 00:10:30;;;;;;;;;;;6.00;99.90;;;;;;5071001;28;19924;-76
2022/01/17 00:12:58;;;;;;;;;;;6.10;99.90;;;;;;5054275;28;20007;-76
2022/01/17 00:15:30;;;;;;;;;;;6.00;99.90;;;;;;5070481;28;19968;-76
2022/01/17 00:20:40;;;;;;;;;;;6.10;99.90;;;;;;5071384;28;20294;-76
2022/01/17 00:23:05;;;;;;;;;;;6.10;99.90;;;;;;5070431;28;19924;-76
2022/01/17 00:25:31;;;;;;;;;;;6.10;99.90;;;;;;5053926;28;20307;-76
2022/01/17 00:27:56;;;;;;;;;;;6.10;99.90;;;;;;5070614;28;19931;-76
2022/01/17 00:30:22;;;;;;;;;;;6.00;99.90;;;;;;5070994;28;20015;-76
2022/01/17 00:32:47;;;;;;;;;;;6.10;99.90;;;;;;5070471;28;20351;-77
2022/01/17 00:35:13;;;;;;;;;;;6.10;99.90;;;;;;5070836;28;20020;-76
2022/01/17 00:37:39;;;;;;;;;;;6.10;99.90;;;;;;5071064;28;19960;-76
2022/01/17 00:40:05;;;;;;;;;;;6.00;99.90;;;;;;5070442;28;19974;-76
2022/01/17 00:42:30;;;;;;;;;;;6.10;99.90;;;;;;5070137;28;19925;-75
2022/01/17 00:44:56;;;;;;;;;;;6.00;99.90;;;;;;5053704;28;19928;-77
2022/01/17 00:47:22;;;;;;;;;;;6.00;99.90;;;;;;5070412;28;19970;-76
2022/01/17 00:49:47;;;;;;;;;;;6.10;99.90;;;;;;5070078;28;20011;-76
2022/01/17 00:52:13;;;;;;;;;;;6.10;99.90;;;;;;5070064;28;19932;-76
2022/01/17 00:54:38;;;;;;;;;;;6.10;99.90;;;;;;5070242;28;19924;-76
2022/01/17 00:57:04;;;;;;;;;;;6.10;99.90;;;;;;5070579;28;19970;-76
2022/01/17 00:59:29;;;;;;;;;;;6.10;99.90;;;;;;5053634;28;19928;-76
2022/01/17 01:01:55;;;;;;;;;;;6.10;99.90;;;;;;5053213;28;19979;-76
2022/01/17 01:04:20;;;;;;;;;;;6.10;99.90;;;;;;5069861;28;19977;-76
2022/01/17 01:06:46;;;;;;;;;;;6.10;99.90;;;;;;5069710;28;19997;-76
2022/01/17 01:09:12;;;;;;;;;;;6.10;99.90;;;;;;5069839;28;19986;-76
2022/01/17 01:11:37;;;;;;;;;;;6.10;99.90;;;;;;5069878;28;20339;-76
2022/01/17 01:14:04;;;;;;;;;;;6.00;99.90;;;;;;5062120;28;19924;-76
2022/01/17 01:16:35;;;;;;;;;;;6.00;99.90;;;;;;5069542;28;19932;-76
2022/01/17 01:21:48;;;;;;;;;;;6.10;99.90;;;;;;5069690;28;19931;-75
2022/01/17 01:29:48;;;;;;;;;;;6.00;99.90;;;;;;5069366;28;19948;-76
2022/01/17 01:32:18;;;;;;;;;;;6.00;99.90;;;;;;5069500;28;19925;-75
2022/01/17 01:34:48;;;;;;;;;;;5.90;99.90;;;;;;5068804;28;19929;-76
2022/01/17 01:37:14;;;;;;;18.20;2.50;;;5.90;99.90;;;;;;5068525;28;19924;-76
2022/01/17 01:39:39;;;;;;;;;;;5.90;99.90;;;;;;5052150;28;20048;-76
2022/01/17 01:42:14;;;;;;;22.20;2.70;;;5.90;99.90;;;;;;5068569;28;19973;-75
2022/01/17 01:44:39;;;;;;;15.02;2.22;;;5.90;99.90;;;;;;5068176;28;20569;-75
2022/01/17 01:47:05;;;;;;;19.00;3.28;;;5.80;99.90;;;;;;5068211;28;20074;-76
2022/01/17 01:49:31;;;;;;;23.15;2.95;;;5.80;99.90;;;;;;5068158;28;20044;-76
2022/01/17 01:51:56;;;;;;;14.45;1.65;;;5.80;99.90;;;;;;5052040;28;20063;-76
2022/01/17 01:54:22;;;;;;;20.88;3.20;;;5.80;99.90;;;;;;5068103;28;20076;-75
2022/01/17 01:56:49;;;;;;;21.80;2.80;;;5.80;99.90;;;;;;5068498;28;20043;-76
2022/01/17 01:59:19;;;;;;;19.65;3.00;;;5.80;99.90;;;;;;5068228;28;20084;-76
2022/01/17 02:01:46;;;;;;;17.52;2.13;;;5.80;99.90;;;;;;5051709;28;20055;-76
2022/01/17 02:04:13;;;;;;;17.13;2.97;;;5.80;99.90;;;;;;5069744;28;20051;-75
2022/01/17 02:06:39;;;;;;;22.33;3.40;;;5.80;99.90;;;;;;5051338;28;20066;-76
2022/01/17 02:09:05;;;;;;;22.08;3.38;;;5.80;99.90;;;;;;5069483;28;20090;-75
2022/01/17 02:11:32;;;;;;;14.70;3.13;;;5.80;99.90;;;;;;5068007;28;20540;-76
2022/01/17 02:13:58;;;;;;;20.60;2.95;;;5.80;99.90;;;;;;5068592;28;20471;-76
2022/01/17 02:16:24;;;;;;;18.58;2.70;;;5.70;99.90;;;;;;5068600;28;20048;-75
2022/01/17 02:18:50;;;;;;;22.45;3.35;;;5.70;99.90;;;;;;5051573;28;20047;-76
2022/01/17 02:22:00;;;;;;;19.67;2.40;;;5.70;99.90;;;;;;5051584;28;20095;-76
2022/01/17 02:24:06;;;;;;;27.10;2.67;;;5.70;99.90;;;;;;5060114;28;20090;-76
2022/01/17 02:26:32;;;;;;;25.77;2.85;;;5.70;99.90;;;;;;5068030;28;20086;-76
2022/01/17 02:28:58;;;;;;;25.52;3.17;;;5.70;99.90;;;;;;5051200;28;20084;-75
2022/01/17 02:31:25;;;;;;;21.98;3.22;;;5.70;99.90;;;;;;5051484;28;20079;-76
2022/01/17 02:33:51;;;;;;;22.42;2.58;;;5.70;99.90;;;;;;5067805;28;20106;-76
2022/01/17 02:36:17;;;;;;;18.73;2.58;;;5.70;99.90;;;;;;5051494;28;20041;-75
2022/01/17 02:38:43;;;;;;;16.05;2.78;;;5.70;99.90;;;;;;5068229;28;20045;-75
2022/01/17 02:41:08;;;;;;;22.50;3.15;;;5.70;99.90;;;;;;5069345;28;20049;-76
2022/01/17 02:43:35;;;;;;;;;;;5.70;99.90;;;;;;5068158;28;20486;-76
2022/01/17 02:48:29;;;;;;;17.50;2.63;;;5.60;99.90;;;;;;5067929;28;20131;-75
2022/01/17 02:50:56;;;;;;;19.90;4.00;;;5.60;99.90;;;;;;5069094;28;20049;-75
2022/01/17 02:53:22;;;;;;;16.73;2.60;;;5.60;99.90;;;;;;5067992;28;20153;-76
2022/01/17 02:55:58;;;;;;;14.07;2.25;;;5.50;99.90;;;;;;5069238;28;20166;-76
2022/01/17 02:58:25;;;;;;;15.98;2.78;;;5.50;99.90;;;;;;5051358;28;20082;-76
2022/01/17 03:00:52;;;;;;;20.27;2.38;;;5.60;99.90;;;;;;5067870;28;20103;-76
2022/01/17 03:03:21;;;;;;;24.77;2.63;;;5.50;99.90;;;;;;5051411;28;20159;-76
2022/01/17 03:05:48;;;;;;;20.38;3.45;;;5.60;99.90;;;;;;5067296;28;20058;-76
2022/01/17 03:08:16;;;;;;;12.63;2.42;;;5.50;99.90;;;;;;5067866;28;20067;-76
2022/01/17 03:10:43;;;;;;;14.90;3.70;;;5.50;99.90;;;;;;5068221;28;20052;-76
2022/01/17 03:13:33;;;;;;;18.13;2.33;;;5.50;99.90;;;;;;5068004;28;20125;-76
2022/01/17 03:16:02;;;;;;;25.75;3.95;;;5.50;99.90;;;;;;5068529;28;20055;-76
2022/01/17 03:18:31;;;;;;;13.52;2.28;;;5.60;99.90;;;;;;5067891;28;20470;-76
2022/01/17 03:20:58;;;;;;;18.15;2.88;;;5.60;99.90;;;;;;5067800;28;20502;-75
2022/01/17 03:23:24;;;;;;;21.48;2.67;;;5.60;99.90;;;;;;5067385;28;20048;-75
2022/01/17 03:25:50;;;;;;;25.33;3.17;;;5.70;99.90;;;;;;5070583;28;20053;-76
2022/01/17 03:28:16;;;;;;;17.20;2.70;;;5.70;99.90;;;;;;5072313;28;20044;-76
2022/01/17 03:30:42;;;;;;;11.77;1.85;;;5.80;99.90;;;;;;5072692;28;20044;-76
2022/01/17 03:33:11;;;;;;;19.35;3.42;;;5.80;99.90;;;;;;5071038;28;20087;-76
2022/01/17 03:35:38;;;;;;;22.90;3.35;;;5.80;99.90;;;;;;5070961;28;20039;-77
2022/01/17 03:38:17;;;;;;;21.48;2.25;;;5.80;99.90;;;;;;5054859;28;20052;-75
2022/01/17 03:40:46;;;;;;;17.08;2.40;;;5.80;99.90;;;;;;5071349;28;20047;-76
2022/01/17 03:43:12;;;;;;;21.95;2.63;;;5.80;99.90;;;;;;5070887;28;20045;-76
2022/01/17 03:45:38;;;;;;;21.92;2.30;;;5.80;99.90;;;;;;5071002;28;20127;-76
2022/01/17 03:48:04;;;;;;;18.63;3.05;;;5.80;99.90;;;;;;5070961;28;20043;-76
2022/01/17 03:50:30;;;;;;;22.23;2.45;;;5.90;99.90;;;;;;5070835;28;20044;-76
2022/01/17 03:52:56;;;;;;;19.73;2.55;;;5.90;99.90;;;;;;5070779;28;20044;-76
2022/01/17 03:55:23;;;;;;;18.58;3.30;;;5.90;99.90;;;;;;5069646;28;20493;-76
2022/01/17 03:57:49;;;;;;;12.57;1.83;;;5.90;99.90;;;;;;5070527;28;20048;-76
2022/01/17 04:00:19;;;;;;;19.98;2.25;;;5.90;99.90;;;;;;5071214;28;20048;-76
2022/01/17 04:02:45;;;;;;;25.25;3.13;;;5.90;99.90;;;;;;5070728;28;20036;-76
2022/01/17 04:05:11;;;;;;;18.25;3.42;;;5.90;99.90;;;;;;5053621;28;20143;-76
2022/01/17 04:07:37;;;;;;;12.40;2.13;;;5.90;99.90;;;;;;5070985;28;20140;-76
2022/01/17 04:10:03;;;;;;;17.17;2.60;;;5.90;99.90;;;;;;5070961;28;20632;-76
2022/01/17 04:12:29;;;;;;;16.83;2.47;;;5.90;99.90;;;;;;5070682;28;20477;-76
2022/01/17 04:14:56;;;;;;;19.75;2.72;;;5.90;99.90;;;;;;5053426;28;20075;-76
2022/01/17 04:17:26;;;;;;;23.73;3.35;;;5.90;99.90;;;;;;5053926;28;20084;-76
2022/01/17 04:19:59;;;;;;;17.40;3.00;;;6.00;99.90;;;;;;5070523;28;20786;-76
2022/01/17 04:22:25;;;;;;;16.63;2.80;;;6.00;99.90;;;;;;5070785;28;20406;-76
2022/01/17 04:24:51;;;;;;;17.58;2.97;;;6.00;99.90;;;;;;5053410;28;20087;-76
2022/01/17 04:27:16;;;;;;;21.85;2.75;;;6.00;99.90;;;;;;5053363;28;20052;-76
2022/01/17 04:29:42;;;;;;;19.60;2.97;;;6.00;99.90;;;;;;5053701;28;20040;-76
2022/01/17 04:32:08;;;;;;;17.98;3.03;;;6.00;99.90;;;;;;5070432;28;20048;-76
2022/01/17 04:34:34;;;;;;;19.63;2.92;;;6.00;99.90;;;;;;5069724;28;20110;-76
2022/01/17 04:37:02;;;;;;;15.65;2.22;;;6.00;99.90;;;;;;5069733;28;20089;-76
2022/01/17 04:39:27;;;;;;;15.77;3.05;;;6.00;99.90;;;;;;5069779;28;20123;-75
2022/01/17 04:41:53;;;;;;;17.20;2.45;;;6.00;99.90;;;;;;5070070;28;20455;-76
2022/01/17 04:47:03;;;;;;;18.45;2.95;;;6.10;99.90;;;;;;5069588;28;20465;-76
2022/01/17 04:49:28;;;;;;;19.55;3.20;;;6.10;99.90;;;;;;5069814;28;20045;-76
2022/01/17 04:51:55;;;;;;;18.83;3.40;;;6.00;99.90;;;;;;5070597;28;20036;-76
2022/01/17 04:55:01;;;;;;;18.70;2.67;;;6.10;99.90;;;;;;5070683;28;20037;-76
2022/01/17 04:57:15;;;;;;;15.48;3.13;;;6.10;99.90;;;;;;5066639;28;20098;-76
2022/01/17 04:59:41;;;;;;;25.27;3.15;;;6.10;99.90;;;;;;5052826;28;20037;-76
2022/01/17 05:02:06;;;;;;;24.45;3.22;;;6.10;99.90;;;;;;5069874;28;20048;-76
2022/01/17 05:04:33;;;;;;;17.90;3.60;;;6.10;99.90;;;;;;5069418;28;20052;-76
2022/01/17 05:06:59;;;;;;;19.52;2.95;;;6.20;99.90;;;;;;5068877;28;20107;-76
2022/01/17 05:09:24;;;;;;;21.13;3.30;;;6.20;99.90;;;;;;5052717;28;20076;-76
2022/01/17 05:11:51;;;;;;;21.17;3.95;;;6.20;99.90;;;;;;5069720;28;20131;-76
2022/01/17 05:14:16;;;;;;;21.00;3.47;;;6.20;99.90;;;;;;5052681;28;20060;-76
2022/01/17 05:16:48;;;;;;;15.18;3.10;;;6.20;99.90;;;;;;5069418;28;20495;-76
2022/01/17 05:21:58;;;;;;;19.55;3.85;;;6.30;99.90;;;;;;5069361;28;20414;-76
2022/01/17 05:24:23;;;;;;;23.83;3.78;;;6.30;99.90;;;;;;5052127;28;20036;-76
2022/01/17 05:26:49;;;;;;;20.77;3.40;;;6.30;99.90;;;;;;5052190;28;20052;-76
2022/01/17 05:29:15;;;;;;;19.15;4.07;;;6.30;99.90;;;;;;5069149;28;20057;-76
2022/01/17 05:31:41;;;;;;;25.70;3.92;;;6.30;99.90;;;;;;5069168;28;20441;-76
2022/01/17 05:34:06;;;;;;;25.98;3.15;;;6.40;99.90;;;;;;5068919;28;20041;-76
2022/01/17 05:36:32;;;;;;;22.88;3.45;;;6.40;99.90;;;;;;5069849;28;20086;-76
2022/01/17 05:38:58;;;;;;;29.25;4.63;;;6.40;99.90;;;;;;5069096;28;20102;-76
2022/01/17 05:41:24;;;;;;;28.05;5.32;;;6.40;99.90;;;;;;5068771;28;20041;-75
2022/01/17 05:43:49;;;;;;;17.38;3.67;;;6.40;99.90;;;;;;5052296;28;20053;-76
2022/01/17 05:46:15;;;;;;;25.38;4.05;;;6.50;99.90;;;;;;5068009;28;20048;-76
2022/01/17 05:48:41;;;;;;;28.75;4.88;;;6.50;99.90;;;;;;5068082;28;20044;-76
2022/01/17 05:51:06;;;;;;;21.35;3.90;;;6.50;99.90;;;;;;5068955;28;20140;-76
2022/01/17 05:53:32;;;;;;;26.05;5.38;;;6.50;99.90;;;;;;5068523;28;20406;-76
2022/01/17 05:55:58;;;;;;;28.50;4.72;;;6.50;99.90;;;;;;5068801;28;20194;-76
2022/01/17 05:58:23;;;;;;;21.67;4.35;;;6.50;99.90;;;;;;5068683;28;20583;-76
2022/01/17 06:00:49;;;;;;;26.60;5.95;;;6.50;99.90;;;;;;5068674;28;20067;-76
2022/01/17 06:03:15;;;;;;;25.00;3.63;;;6.50;99.90;;;;;;5051817;28;20048;-76
2022/01/17 06:05:41;;;;;;;25.48;3.45;;;6.50;99.90;;;;;;5068361;28;20121;-75
2022/01/17 06:08:06;;;;;;;19.65;3.22;;;6.50;99.90;;;;;;5068408;28;20056;-76
2022/01/17 06:10:33;;;;;;;26.60;5.00;;;6.50;99.90;;;;;;5067993;28;20040;-76
2022/01/17 06:13:01;;;;;;;26.77;4.05;;;6.60;99.90;;;;;;5068606;28;20088;-76
2022/01/17 06:15:27;;;;;;;16.15;3.08;;;6.60;99.90;;;;;;5068201;28;20048;-76
2022/01/17 06:17:52;;;;;;;28.70;4.35;;;6.60;99.90;;;;;;5069371;28;20407;-75
2022/01/17 06:20:18;;;;;;;28.40;5.55;;;6.60;99.90;;;;;;5050142;28;20404;-75
2022/01/17 06:22:43;;;;;;;26.85;4.95;;;6.60;99.90;;;;;;5069381;28;20075;-75
2022/01/17 06:25:09;;;;;;;34.10;5.97;;;6.60;99.90;;;;;;5068303;28;20449;-76
2022/01/17 06:27:35;;;;;;;25.80;4.73;;;6.60;99.90;;;;;;5066575;28;20431;-76
2022/01/17 06:30:01;;;;;;;29.83;5.43;;;6.70;99.90;;;;;;5066914;28;20483;-76
2022/01/17 06:32:28;;;;;;;27.05;5.40;;;6.60;99.90;;;;;;5066876;28;20404;-76
2022/01/17 06:34:55;;;;;;;26.42;4.78;;;6.70;99.90;;;;;;5066722;28;20801;-75
2022/01/17 06:37:20;;;;;;;25.80;5.65;;;6.70;99.90;;;;;;5066877;28;20762;-75
2022/01/17 06:39:46;;;;;;;34.43;6.33;;;6.70;99.90;;;;;;5066760;28;20412;-75
2022/01/17 06:42:12;;;;;;;29.53;6.03;;;6.70;99.90;;;;;;5066790;28;20404;-75
2022/01/17 06:44:37;;;;;;;30.27;5.22;;;6.80;99.90;;;;;;5066431;28;20762;-76
2022/01/17 06:47:03;;;;;;;33.57;6.67;;;6.80;99.90;;;;;;5066643;28;20432;-76
2022/01/17 06:49:29;;;;;;;33.22;6.47;;;6.70;99.90;;;;;;5067487;28;20979;-76
2022/01/17 06:51:54;;;;;;;29.55;5.43;;;6.70;99.90;;;;;;5066852;28;20403;-73
2022/01/17 06:54:20;;;;;;;32.70;6.47;;;6.80;99.90;;;;;;5067550;28;20396;-73
2022/01/17 06:56:46;;;;;;;36.58;6.47;;;6.80;99.90;;;;;;5067833;28;20882;-73
2022/01/17 06:59:12;;;;;;;36.70;6.93;;;6.80;99.90;;;;;;5062549;28;20419;-78
2022/01/17 07:01:38;;;;;;;40.72;7.72;;;6.80;99.90;;;;;;5069364;28;20499;-75
2022/01/17 07:04:04;;;;;;;38.75;6.88;;;6.80;99.90;;;;;;5070388;28;20458;-75
2022/01/17 07:06:31;;;;;;;40.00;7.43;;;6.80;99.90;;;;;;5070366;28;20438;-75
2022/01/17 07:08:56;;;;;;;34.60;6.88;;;6.90;99.90;;;;;;5053550;28;20459;-75
2022/01/17 07:11:22;;;;;;;36.13;7.50;;;6.90;99.90;;;;;;5070611;28;20443;-75
2022/01/17 07:13:48;;;;;;;39.85;6.63;;;6.90;99.90;;;;;;5070278;28;21047;-75
2022/01/17 07:16:14;;;;;;;35.87;6.30;;;7.00;99.90;;;;;;5070575;28;20940;-75
2022/01/17 07:18:39;;;;;;;39.42;7.07;;;7.00;99.90;;;;;;5070120;28;20490;-75
2022/01/17 07:21:05;;;;;;;39.75;7.13;;;7.00;99.90;;;;;;5070551;28;20406;-76
2022/01/17 07:23:31;;;;;;;37.00;7.05;;;7.00;99.90;;;;;;5084443;28;20494;-75
2022/01/17 07:25:56;;;;;;;34.47;6.63;;;7.00;99.90;;;;;;5072711;28;20425;-75
2022/01/17 07:28:22;;;;;;;37.15;6.45;;;7.10;99.90;;;;;;5090348;28;20488;-75
2022/01/17 07:30:48;;;;;;;38.97;6.33;;;7.10;99.90;;;;;;5090203;28;20428;-75
2022/01/17 07:33:14;;;;;;;36.60;6.68;;;7.10;99.90;;;;;;5073096;28;20416;-75
2022/01/17 07:35:40;;;;;;;40.97;7.00;;;7.20;99.90;;;;;;5090252;28;20413;-75
2022/01/17 07:38:06;;;;;;;37.20;6.33;;;7.20;99.90;;;;;;5073203;28;20398;-76
2022/01/17 07:40:33;;;;;;;40.33;7.18;;;7.20;99.90;;;;;;5090034;28;20451;-75
2022/01/17 07:42:59;;;;;;;38.08;6.80;;;7.20;99.90;;;;;;5072885;28;20524;-75
2022/01/17 07:45:27;;;;;;;42.47;8.03;;;7.30;99.90;;;;;;5072675;28;20975;-75
2022/01/17 07:50:23;;;;;;;39.78;7.00;;;7.30;99.90;;;;;;5089455;28;20900;-75
2022/01/17 07:52:51;;;;;;;39.75;7.63;;;7.30;99.90;;;;;;5089940;28;20410;-75
2022/01/17 07:55:18;;;;;;;35.40;6.78;;;7.30;99.90;;;;;;5089635;28;20406;-76
2022/01/17 07:57:44;;;;;;;40.15;7.43;;;7.30;99.90;;;;;;5089438;28;20399;-75
2022/01/17 08:00:12;;;;;;;39.05;7.72;;;7.40;99.90;;;;;;5089823;28;20772;-76
2022/01/17 08:02:38;;;;;;;40.28;7.07;;;7.40;99.90;;;;;;5089967;28;20417;-75
2022/01/17 08:05:05;;;;;;;35.10;6.67;;;7.40;99.90;;;;;;5089532;28;20397;-76
2022/01/17 08:07:31;;;;;;;40.60;6.83;;;7.50;99.90;;;;;;5089039;28;20482;-76
2022/01/17 08:09:57;;;;;;;33.50;6.87;;;7.50;99.90;;;;;;5072009;28;20908;-75
2022/01/17 08:12:22;;;;;;;42.63;7.80;;;7.50;99.90;;;;;;5072453;28;20486;-76
2022/01/17 08:14:48;;;;;;;35.80;6.88;;;7.50;99.90;;;;;;5072627;28;20816;-76
2022/01/17 08:17:13;;;;;;;42.77;7.40;;;7.50;99.90;;;;;;5072305;28;20405;-76
2022/01/17 08:19:39;;;;;;;38.20;7.43;;;7.60;99.90;;;;;;5089575;28;20505;-76
2022/01/17 08:22:06;;;;;;;39.15;7.78;;;7.60;99.90;;;;;;5086848;28;20405;-76
2022/01/17 08:24:34;;;;;;;38.43;6.87;;;7.60;99.90;;;;;;5069035;28;20416;-76
2022/01/17 08:27:00;;;;;;;44.90;8.63;;;7.60;99.90;;;;;;5069100;28;20474;-76
2022/01/17 08:29:26;;;;;;;40.88;8.25;;;7.60;99.90;;;;;;5068560;28;20910;-76
2022/01/17 08:31:52;;;;;;;36.25;8.18;;;7.60;99.90;;;;;;5068668;28;20886;-76
2022/01/17 08:34:18;;;;;;;44.45;8.85;;;7.60;99.90;;;;;;5069027;28;20754;-76
2022/01/17 08:36:45;;;;;;;39.35;7.03;;;7.60;99.90;;;;;;5068943;28;20404;-76
2022/01/17 08:39:11;;;;;;;30.52;5.95;;;7.70;99.90;;;;;;5069327;28;20539;-76
2022/01/17 08:41:38;;;;;;;31.67;6.18;;;7.70;99.90;;;;;;5052608;28;20106;-76
2022/01/17 08:44:04;;;;;;;41.03;7.10;;;7.80;99.90;;;;;;5069084;28;20110;-76
2022/01/17 08:46:29;;;;;;;42.95;5.90;;;7.80;99.90;;;;;;5068948;28;20422;-76
2022/01/17 08:48:55;;;;;;;36.78;6.40;;;7.80;99.90;;;;;;5069830;28;20040;-76
2022/01/17 08:51:20;;;;;;;44.75;8.55;;;7.90;99.90;;;;;;5069714;28;20040;-76
2022/01/17 08:53:46;;;;;;;39.25;6.30;;;7.90;99.90;;;;;;5070234;28;20040;-76
2022/01/17 08:56:12;;;;;;;46.47;8.70;;;7.90;99.90;;;;;;5051844;28;20404;-76
2022/01/17 08:58:37;;;;;;;45.00;8.93;;;7.90;99.90;;;;;;5067830;28;20759;-76
2022/01/17 09:01:03;;;;;;;42.15;8.98;;;8.00;99.90;;;;;;5068533;28;20412;-75
2022/01/17 09:03:29;;;;;;;44.40;9.55;;;8.00;99.90;;;;;;5068214;28;20770;-76
2022/01/17 09:05:55;;;;;;;43.83;8.43;;;8.00;99.90;;;;;;5068543;28;20432;-76
2022/01/17 09:08:21;;;;;;;45.88;9.57;;;8.10;99.90;;;;;;5051188;28;20465;-76
2022/01/17 09:10:48;;;;;;;45.47;9.15;;;8.10;99.90;;;;;;5067825;28;20916;-76
2022/01/17 09:13:14;;;;;;;42.92;9.13;;;8.10;99.90;;;;;;5068310;28;20953;-76
2022/01/17 09:15:39;;;;;;;42.20;8.43;;;8.20;99.90;;;;;;5067891;28;20408;-76
2022/01/17 09:18:06;;;;;;;45.93;8.57;;;8.20;99.90;;;;;;5068280;28;20404;-76
2022/01/17 09:20:34;;;;;;;43.63;8.33;;;8.20;99.90;;;;;;5068054;28;20483;-76
2022/01/17 09:23:02;;;;;;;45.07;8.37;;;8.30;99.90;;;;;;5067622;28;20977;-76
2022/01/17 09:25:27;;;;;;;44.80;8.43;;;8.20;99.90;;;;;;5066736;28;20420;-77
2022/01/17 09:27:53;;;;;;;48.00;9.00;;;8.30;99.90;;;;;;5050302;28;20439;-76
2022/01/17 09:30:19;;;;;;;50.55;9.38;;;8.30;99.90;;;;;;5067004;28;20994;-76
2022/01/17 09:32:45;;;;;;;49.67;9.07;;;8.30;99.90;;;;;;5067004;28;20932;-76
2022/01/17 09:35:12;;;;;;;49.30;9.10;;;8.30;99.90;;;;;;5066870;28;20498;-76
2022/01/17 09:37:39;;;;;;;50.70;10.17;;;8.30;99.90;;;;;;5067743;28;20936;-77
2022/01/17 09:40:06;;;;;;;51.35;9.63;;;8.30;99.90;;;;;;5066405;28;20399;-76
2022/01/17 09:42:36;;;;;;;45.70;8.75;;;8.30;99.90;;;;;;5066731;28;21339;-76
2022/01/17 09:45:07;;;;;;;44.37;9.20;;;8.30;99.90;;;;;;5049937;28;20411;-76
2022/01/17 09:47:34;;;;;;;46.05;8.45;;;8.30;99.90;;;;;;5065837;28;21003;-76
2022/01/17 09:50:06;;;;;;;51.75;9.13;;;8.30;99.90;;;;;;5066757;28;20411;-76
2022/01/17 09:52:36;;;;;;;50.70;9.40;;;8.40;99.90;;;;;;5049895;28;20447;-76
2022/01/17 09:55:09;;;;;;;54.60;10.35;;;8.40;99.90;;;;;;5050061;28;20407;-76
2022/01/17 09:57:40;;;;;;;49.22;8.52;;;8.50;99.90;;;;;;5066654;28;20494;-76
2022/01/17 10:00:08;;;;;;;47.17;9.60;;;8.50;99.90;;;;;;5065925;28;20490;-76
2022/01/17 10:02:34;;;;;;;54.17;10.93;;;8.50;99.90;;;;;;5067905;28;20430;-76
2022/01/17 10:05:02;;;;;;;56.53;11.05;;;8.50;99.90;;;;;;5049510;28;20457;-76
2022/01/17 10:08:04;;;;;;;48.77;10.13;;;8.60;99.90;;;;;;5065831;28;20464;-77
2022/01/17 10:10:46;;;;;;;53.70;9.93;;;8.60;99.90;;;;;;5049673;28;20413;-77
2022/01/17 10:13:23;;;;;;;51.43;10.90;;;8.70;99.90;;;;;;5048939;28;20419;-76
2022/01/17 10:16:05;;;;;;;52.72;11.10;;;8.70;99.90;;;;;;5065990;28;20423;-77
2022/01/17 10:19:04;;;;;;;52.03;10.20;;;8.80;99.90;;;;;;5067524;28;20465;-76
2022/01/17 10:21:42;;;;;;;52.30;10.77;;;8.80;99.90;;;;;;5066134;28;20452;-77
2022/01/17 10:27:13;;;;;;;54.35;10.88;;;8.80;99.90;;;;;;5066046;28;20841;-77
2022/01/17 10:35:23;;;;;;;60.67;11.02;;;8.80;99.90;;;;;;5065207;28;20995;-77
2022/01/17 10:37:58;;;;;;;61.42;11.98;;;8.80;99.90;;;;;;5049617;28;20408;-77
2022/01/17 10:40:25;;;;;;;62.15;11.60;;;8.80;99.90;;;;;;5065394;28;20414;-76
2022/01/17 10:42:50;;;;;;;62.28;11.73;;;8.80;99.90;;;;;;5065498;28;20411;-77
2022/01/17 10:45:31;;;;;;;66.77;11.73;;;8.70;99.90;;;;;;5065900;28;20802;-77
2022/01/17 10:47:58;;;;;;;67.03;12.48;;;8.70;99.90;;;;;;5049095;28;20519;-77
2022/01/17 10:50:48;;;;;;;56.70;11.15;;;8.80;99.90;;;;;;5065752;28;20951;-77
2022/01/17 10:53:17;;;;;;;61.92;12.43;;;8.80;99.90;;;;;;5048504;28;21000;-77
2022/01/17 10:55:55;;;;;;;59.03;11.45;;;8.90;99.90;;;;;;5067022;28;20432;-76
2022/01/17 10:58:25;;;;;;;54.28;11.43;;;8.90;99.90;;;;;;5049918;28;20411;-77
2022/01/17 11:00:57;;;;;;;63.15;12.50;;;9.00;99.90;;;;;;5067431;28;20794;-77
2022/01/17 11:03:30;;;;;;;64.00;12.50;;;9.00;99.90;;;;;;5066882;28;21042;-77
2022/01/17 11:05:57;;;;;;;59.65;12.32;;;9.00;99.90;;;;;;5067323;28;20490;-76
2022/01/17 11:08:29;;;;;;;60.75;11.27;;;9.00;99.90;;;;;;5049737;28;20404;-76
2022/01/17 11:11:01;;;;;;;65.22;11.85;;;9.00;99.90;;;;;;5067023;28;20429;-77
2022/01/17 11:13:30;;;;;;;72.00;12.80;;;9.00;99.90;;;;;;5066695;28;20411;-77
2022/01/17 11:16:04;;;;;;;63.28;12.38;;;9.00;99.90;;;;;;5066324;28;20483;-77
2022/01/17 11:18:30;;;;;;;73.18;14.65;;;8.90;99.90;;;;;;5049654;28;20961;-77
2022/01/17 11:20:58;;;;;;;71.50;12.88;;;8.90;99.90;;;;;;5066511;28;20416;-77
2022/01/17 11:23:26;;;;;;;63.03;12.03;;;8.90;99.90;;;;;;5066456;28;20418;-77
2022/01/17 11:25:55;;;;;;;64.00;12.43;;;8.90;99.90;;;;;;5049495;28;20412;-77
2022/01/17 11:28:31;;;;;;;72.47;13.63;;;8.90;99.90;;;;;;5065857;28;20419;-77
2022/01/17 11:30:59;;;;;;;69.10;13.25;;;9.00;99.90;;;;;;5066564;28;21028;-78
2022/01/17 11:33:26;;;;;;;64.83;12.80;;;9.10;99.90;;;;;;5049490;28;20404;-78
2022/01/17 11:35:53;;;;;;;61.60;12.80;;;9.20;99.90;;;;;;5066566;28;20925;-78
2022/01/17 11:38:25;;;;;;;66.07;13.57;;;9.30;99.90;;;;;;5065805;28;20418;-77
2022/01/17 11:40:52;;;;;;;63.53;11.95;;;9.30;99.90;;;;;;5066150;28;20925;-77
2022/01/17 11:43:33;;;;;;;59.92;13.45;;;9.30;99.90;;;;;;5049629;28;20404;-78
2022/01/17 11:46:00;;;;;;;60.38;11.98;;;9.60;99.90;;;;;;5067662;28;20435;-77
2022/01/17 11:48:28;;;;;;;66.47;12.55;;;10.10;99.90;;;;;;5071077;28;20514;-78
2022/01/17 11:50:55;;;;;;;64.70;12.80;;;10.00;99.90;;;;;;5070068;28;20419;-77
2022/01/17 11:53:21;;;;;;;55.88;12.10;;;9.80;99.90;;;;;;5069501;28;20413;-77
2022/01/17 11:55:49;;;;;;;60.20;12.53;;;9.60;99.90;;;;;;5069549;28;20473;-77
2022/01/17 11:58:22;;;;;;;61.85;12.85;;;9.50;99.90;;;;;;5053209;28;20439;-77
2022/01/17 12:00:49;;;;;;;62.00;13.05;;;9.30;99.90;;;;;;5069404;28;20416;-77
2022/01/17 12:03:19;;;;;;;55.05;11.77;;;9.30;99.90;;;;;;5070546;28;20414;-77
2022/01/17 12:05:46;;;;;;;55.13;12.27;;;9.30;99.90;;;;;;5069249;28;20491;-77
2022/01/17 12:08:17;;;;;;;63.50;13.03;;;9.30;99.90;;;;;;5069732;28;20518;-77
2022/01/17 12:10:49;;;;;;;61.13;11.30;;;9.40;99.90;;;;;;5069625;28;20915;-77
2022/01/17 12:13:17;;;;;;;59.33;11.67;;;9.30;99.90;;;;;;5069317;28;20454;-77
2022/01/17 12:16:06;;;;;;;60.78;12.50;;;9.30;99.90;;;;;;5069362;28;20403;-77
2022/01/17 12:18:59;;;;;;;57.22;12.20;;;9.40;99.90;;;;;;5052364;28;20438;-77
2022/01/17 12:21:32;;;;;;;55.35;11.48;;;9.40;99.90;;;;;;5058959;28;20421;-77
2022/01/17 12:24:17;;;;;;;53.95;11.70;;;9.40;99.90;;;;;;5069079;28;20553;-77
2022/01/17 12:27:03;;;;;;;47.78;9.93;;;9.40;99.90;;;;;;5069158;28;20463;-77
2022/01/17 12:29:54;;;;;;;51.67;10.85;;;9.40;99.90;;;;;;5068682;28;20425;-77
2022/01/17 12:32:20;;;;;;;52.95;10.95;;;9.30;99.90;;;;;;5068435;28;20442;-77
2022/01/17 12:34:46;;;;;;;56.33;10.77;;;9.30;99.90;;;;;;5069063;28;20415;-77
2022/01/17 12:37:31;;;;;;;54.40;11.02;;;9.20;99.90;;;;;;5070333;28;20441;-77
2022/01/17 12:40:31;;;;;;;44.80;10.00;;;9.30;99.90;;;;;;5068968;28;20412;-77
2022/01/17 12:43:03;;;;;;;49.60;10.05;;;9.30;99.90;;;;;;5015705;28;20475;-77
2022/01/17 12:45:34;;;;;;;50.63;9.63;;;9.30;99.90;;;;;;5068328;28;20404;-77
2022/01/17 12:48:02;;;;;;;46.75;9.80;;;9.20;99.90;;;;;;5068733;28;20587;-77
2022/01/17 12:50:32;;;;;;;49.92;9.80;;;9.20;99.90;;;;;;5068071;28;20415;-77
2022/01/17 12:52:59;;;;;;;53.40;10.75;;;9.10;99.90;;;;;;5069018;28;20499;-77
2022/01/17 12:55:33;;;;;;;50.33;9.17;;;9.00;99.90;;;;;;5068622;28;20404;-77
2022/01/17 12:57:59;;;;;;;45.80;9.30;;;9.10;99.90;;;;;;5051598;28;20404;-76
2022/01/17 13:00:28;;;;;;;45.97;9.50;;;9.10;99.90;;;;;;5068890;28;20429;-76
2022/01/17 13:02:56;;;;;;;48.58;10.13;;;9.20;99.90;;;;;;5051649;28;20430;-76
2022/01/17 13:05:30;;;;;;;52.00;9.65;;;9.20;99.90;;;;;;5068196;28;20502;-75
2022/01/17 13:08:00;;;;;;;52.63;9.87;;;9.40;99.90;;;;;;5068207;28;20481;-77
2022/01/17 13:10:27;;;;;;;48.10;9.43;;;9.60;99.90;;;;;;5068014;28;20411;-76
2022/01/17 13:12:53;;;;;;;46.67;9.57;;;9.80;99.90;;;;;;5068113;28;20407;-77
2022/01/17 13:15:19;;;;;;;46.10;8.93;;;9.90;99.90;;;;;;5069326;28;20731;-76
2022/01/17 13:17:50;;;;;;;38.45;9.02;;;10.00;99.90;;;;;;5068618;28;20398;-76
2022/01/17 13:20:16;;;;;;;46.97;9.55;;;10.10;99.90;;;;;;5067904;28;20408;-77
2022/01/17 13:22:53;;;;;;;42.47;9.40;;;10.20;99.90;;;;;;5067562;28;20415;-76
2022/01/17 13:25:20;;;;;;;47.50;9.98;;;10.10;99.90;;;;;;5067419;28;20408;-76
2022/01/17 13:27:52;;;;;;;45.65;9.25;;;10.00;99.90;;;;;;5067294;28;20533;-76
2022/01/17 13:30:18;;;;;;;45.50;9.18;;;10.10;99.90;;;;;;5067526;28;20959;-76